Etusivu
METAR-TAF:

METAR-TAF

Lentoasemat :

Jakutskin lentoasema

Jakutsk, Venäjä

Leveyspiiri: 62-01N, Pituuspiiri: 129-43E, korkeus merenpinnasta: 103 m

Tämänhetkinen sää

Tämä raportti tehtiin 39 minuuttia sitten, kello 00.00 UTC
Tuuli 2 kn etelästä/kaakosta
Lämpötila 19°C
Kosteus 64%
Ilmanpaine 1011 hPa
Näkyvyys 10 km tai enemmän
ei pilviä alle 1500 m:ssä eikä cumulonimbus-pilviä

METAR: UEEE 100000Z 16001MPS CAVOK 19/12 Q1011 R05/09//67 NOSIG RMK QFE749

Aika: 09:39 (00:39 UTC)

Sääennuste

Tämä raportti tehtiin 1 tunti ja 39 minuuttia sitten, kello 23.00 UTC
Ennuste voimassa 10. päivästä klo 00 UTC - 11. päivään klo 06 UTC
Tuuli 10 kn lännestä/luoteesta puuskistuen 19 kn:hen
Näkyvyys 10 km tai enemmän
Hajanaisia pilviä 3000 ft:n korkeudessa, Cumulonimbus.

TAF: UEEE 092300Z 1000/1106 30005G10MPS 9999 SCT030CB TX25/1005Z TN11/1018Z

Säähavainnot ja -ennusteet yli 4000 lentoasemalta (METAR- ja TAF-raportit).

Käytössä olevat sääasemat on merkitty karttaan keltaisilla ja punaisilla pisteillä.

Aseta hiiri pisteen päälle nähdäksesi sääaseman nimen.

Klikkaa sitten nähdäksesi säähavainnot ja -ennusteet.

Kartan vaihtaminen: klikkaa mustalla rastilla varustettuja vihreitä pisteitä, niin voit zoomata sisään; viivalla varustettua vihreää pistettä, niin voit zoomata ulos tai vihreitä nuolia, niin pääset viereisille kartoille.


METAR-TAF: